Time;durP1;ratioP1;P1;durP2;ratioP2;P2;SDS_P1;SDS_P2;PMS_P1;PMS_P2;Temp;Humidity;BMP_temperature;BMP_pressure;BME280_temperature;BME280_humidity;BME280_pressure;Samples;Min_cycle;Max_cycle;Signal;HPM_P1;HPM_P2
2021/09/15 00:00:46;;;;;;;21.20;12.80;;;13.70;99.90;;;;;;4423035;32;20497;-70
2021/09/15 00:03:13;;;;;;;22.70;13.93;;;13.60;99.90;;;;;;4424489;32;20135;-70
2021/09/15 00:05:39;;;;;;;22.10;13.63;;;13.70;99.90;;;;;;4427565;32;20147;-70
2021/09/15 00:08:06;;;;;;;22.87;13.67;;;13.60;99.90;;;;;;4425966;32;20155;-70
2021/09/15 00:10:35;;;;;;;23.73;14.23;;;13.60;99.90;;;;;;4427863;32;20137;-69
2021/09/15 00:13:02;;;;;;;20.17;13.20;;;13.60;99.90;;;;;;4427782;32;20142;-70
2021/09/15 00:15:29;;;;;;;21.20;13.93;;;13.60;99.90;;;;;;4427522;32;20130;-70
2021/09/15 00:17:58;;;;;;;21.60;13.00;;;13.50;99.90;;;;;;4426102;32;20138;-69
2021/09/15 00:20:25;;;;;;;21.40;13.47;;;13.50;99.90;;;;;;4425772;32;20200;-69
2021/09/15 00:22:51;;;;;;;18.00;12.60;;;13.50;99.90;;;;;;4426331;32;20166;-70
2021/09/15 00:25:18;;;;;;;19.03;12.43;;;13.40;99.90;;;;;;4425956;32;20163;-70
2021/09/15 00:27:45;;;;;;;19.87;12.77;;;13.40;99.90;;;;;;4427824;32;20372;-70
2021/09/15 00:30:12;;;;;;;18.40;12.50;;;13.40;99.90;;;;;;4427246;32;20163;-70
2021/09/15 00:32:41;;;;;;;18.50;12.67;;;13.40;99.90;;;;;;4427460;32;20162;-69
2021/09/15 00:35:09;;;;;;;16.03;10.80;;;13.40;99.90;;;;;;4427204;32;20176;-70
2021/09/15 00:37:36;;;;;;;16.80;11.97;;;13.40;99.90;;;;;;4425669;32;20168;-70
2021/09/15 00:40:03;;;;;;;20.70;12.20;;;13.30;99.90;;;;;;4427010;32;20162;-70
2021/09/15 00:42:30;;;;;;;17.37;11.43;;;13.30;99.90;;;;;;4427148;32;20226;-69
2021/09/15 00:45:00;;;;;;;17.80;12.27;;;13.20;99.90;;;;;;4427320;32;20512;-70
2021/09/15 00:47:30;;;;;;;18.10;11.30;;;13.30;99.90;;;;;;4425345;32;20194;-69
2021/09/15 00:49:59;;;;;;;16.27;11.50;;;13.20;99.90;;;;;;4426745;32;20131;-69
2021/09/15 00:52:27;;;;;;;18.67;11.47;;;13.20;99.90;;;;;;4425646;32;20139;-70
2021/09/15 00:54:56;;;;;;;16.17;10.93;;;13.20;99.90;;;;;;4427367;32;20128;-69
2021/09/15 00:57:23;;;;;;;19.40;11.47;;;13.10;99.90;;;;;;4427019;32;20441;-69
2021/09/15 00:59:49;;;;;;;15.40;10.30;;;13.10;99.90;;;;;;4426083;32;20155;-69
2021/09/15 01:02:16;;;;;;;15.10;10.07;;;13.10;99.90;;;;;;4426899;32;20139;-69
2021/09/15 01:04:46;;;;;;;13.83;9.60;;;13.00;99.90;;;;;;4427076;32;20138;-69
2021/09/15 01:07:16;;;;;;;14.87;9.47;;;13.00;99.90;;;;;;4427139;32;20137;-69
2021/09/15 01:09:43;;;;;;;14.20;9.57;;;12.90;99.90;;;;;;4424789;32;20244;-69
2021/09/15 01:12:13;;;;;;;14.83;9.87;;;12.90;99.90;;;;;;4425220;32;20127;-70
2021/09/15 01:14:41;;;;;;;14.27;9.37;;;12.90;99.90;;;;;;4424938;32;20139;-70
2021/09/15 01:17:08;;;;;;;15.87;9.87;;;12.80;99.90;;;;;;4425245;32;20461;-69
2021/09/15 01:19:35;;;;;;;13.67;9.33;;;12.80;99.90;;;;;;4427006;32;20127;-70
2021/09/15 01:22:05;;;;;;;15.23;9.00;;;12.80;99.90;;;;;;4426966;32;20470;-70
2021/09/15 01:24:35;;;;;;;12.03;8.83;;;12.70;99.90;;;;;;4425237;32;20158;-69
2021/09/15 01:27:02;;;;;;;16.33;9.30;;;12.70;99.90;;;;;;4426090;32;20441;-70
2021/09/15 01:29:34;;;;;;;15.07;9.17;;;12.60;99.90;;;;;;4425095;32;20140;-70
2021/09/15 01:32:03;;;;;;;11.37;8.10;;;12.60;99.90;;;;;;4426653;32;20181;-70
2021/09/15 01:34:47;;;;;;;12.30;8.97;;;12.60;99.90;;;;;;4425729;32;20135;-70
2021/09/15 01:37:16;;;;;;;12.73;8.43;;;12.50;99.90;;;;;;4426565;32;20154;-70
2021/09/15 01:39:45;;;;;;;12.40;9.00;;;12.50;99.90;;;;;;4424658;32;20203;-70
2021/09/15 01:42:12;;;;;;;12.47;9.13;;;12.50;99.90;;;;;;4426294;32;20243;-70
2021/09/15 01:44:43;;;;;;;12.33;8.20;;;12.50;99.90;;;;;;4426476;32;20400;-70
2021/09/15 01:47:12;;;;;;;11.20;8.37;;;12.40;99.90;;;;;;4426587;32;20127;-70
2021/09/15 01:49:40;;;;;;;13.00;8.83;;;12.30;99.90;;;;;;4426565;32;20334;-69
2021/09/15 01:52:10;;;;;;;13.93;9.40;;;12.30;99.90;;;;;;4424528;32;20181;-68
2021/09/15 01:54:39;;;;;;;12.33;8.80;;;12.30;99.90;;;;;;4426270;32;20128;-69
2021/09/15 01:57:06;;;;;;;12.77;9.10;;;12.30;99.90;;;;;;4425016;32;20183;-69
2021/09/15 01:59:33;;;;;;;12.60;8.80;;;12.30;99.90;;;;;;4425395;32;20417;-69
2021/09/15 02:02:04;;;;;;;13.03;8.97;;;12.30;99.90;;;;;;4424406;32;20140;-69
2021/09/15 02:04:31;;;;;;;11.80;8.23;;;12.30;99.90;;;;;;4425914;32;20473;-68
2021/09/15 02:06:58;;;;;;;13.83;9.10;;;12.30;99.90;;;;;;4424590;32;20142;-69
2021/09/15 02:09:25;;;;;;;14.73;9.60;;;12.20;99.90;;;;;;4424278;32;20159;-68
2021/09/15 02:12:00;;;;;;;12.10;9.03;;;12.20;99.90;;;;;;4426142;32;20372;-69
2021/09/15 02:14:27;;;;;;;14.73;9.50;;;12.20;99.90;;;;;;4424438;32;20130;-70
2021/09/15 02:16:54;;;;;;;15.00;9.70;;;12.20;99.90;;;;;;4423558;32;20162;-69
2021/09/15 02:19:23;;;;;;;14.47;9.43;;;12.20;99.90;;;;;;4424034;32;20170;-69
2021/09/15 02:21:50;;;;;;;17.17;10.27;;;12.20;99.90;;;;;;4425396;32;20487;-68
2021/09/15 02:24:17;;;;;;;16.27;10.03;;;12.20;99.90;;;;;;4425846;32;20450;-70
2021/09/15 02:26:47;;;;;;;16.40;9.60;;;12.20;99.90;;;;;;4424424;32;20176;-71
2021/09/15 02:29:13;;;;;;;13.47;9.17;;;12.20;99.90;;;;;;4425955;32;20223;-70
2021/09/15 02:31:43;;;;;;;14.37;9.90;;;12.20;99.90;;;;;;4424218;32;20496;-69
2021/09/15 02:34:09;;;;;;;15.13;9.57;;;12.20;99.90;;;;;;4423923;32;20144;-69
2021/09/15 02:36:39;;;;;;;14.40;9.67;;;12.20;99.90;;;;;;4425090;32;20155;-68
2021/09/15 02:39:09;;;;;;;15.77;9.10;;;12.10;99.90;;;;;;4418033;32;20162;-68
2021/09/15 02:41:37;;;;;;;14.83;9.20;;;12.10;99.90;;;;;;4425768;32;20188;-69
2021/09/15 02:44:04;;;;;;;14.33;8.57;;;12.10;99.90;;;;;;4425824;32;20131;-69
2021/09/15 02:46:32;;;;;;;14.47;8.33;;;12.10;99.90;;;;;;4423919;32;20143;-70
2021/09/15 02:49:00;;;;;;;12.73;8.00;;;12.00;99.90;;;;;;4425420;32;20132;-69
2021/09/15 02:51:26;;;;;;;12.63;7.80;;;12.10;99.90;;;;;;4425489;32;20131;-70
2021/09/15 02:53:53;;;;;;;13.80;8.50;;;12.10;99.90;;;;;;4425519;32;20170;-69
2021/09/15 02:56:20;;;;;;;14.87;8.37;;;12.10;99.90;;;;;;4425503;32;20387;-69
2021/09/15 02:58:47;;;;;;;13.80;8.60;;;12.10;99.90;;;;;;4423845;32;20244;-70
2021/09/15 03:01:17;;;;;;;14.77;8.67;;;12.10;99.90;;;;;;4425260;32;20131;-69
2021/09/15 03:03:44;;;;;;;13.90;8.67;;;12.10;99.90;;;;;;4424610;32;20135;-69
2021/09/15 03:06:11;;;;;;;15.17;8.67;;;12.20;99.90;;;;;;4424129;32;20188;-70
2021/09/15 03:08:40;;;;;;;15.17;9.13;;;12.20;99.90;;;;;;4424519;32;20218;-70
2021/09/15 03:11:07;;;;;;;16.20;9.33;;;12.30;99.90;;;;;;4423419;32;20203;-69
2021/09/15 03:13:34;;;;;;;16.33;9.63;;;12.30;99.90;;;;;;4424119;32;20212;-71
2021/09/15 03:16:06;;;;;;;15.37;9.37;;;12.40;99.90;;;;;;4425202;32;20385;-70
2021/09/15 03:18:32;;;;;;;16.87;9.13;;;12.40;99.90;;;;;;4423987;32;20534;-70
2021/09/15 03:21:01;;;;;;;15.73;9.20;;;12.40;99.90;;;;;;4425357;32;20157;-70
2021/09/15 03:23:27;;;;;;;15.33;9.47;;;12.50;99.90;;;;;;4423861;32;20173;-69
2021/09/15 03:26:00;;;;;;;17.70;9.50;;;12.50;99.90;;;;;;4422039;32;20174;-70
2021/09/15 03:28:30;;;;;;;14.73;9.10;;;12.60;99.90;;;;;;4424102;32;20147;-69
2021/09/15 03:30:57;;;;;;;17.07;9.57;;;12.60;99.90;;;;;;4424999;32;20186;-70
2021/09/15 03:33:24;;;;;;;16.60;10.00;;;12.60;99.90;;;;;;4424407;32;20143;-69
2021/09/15 03:35:51;;;;;;;16.10;9.47;;;12.60;99.90;;;;;;4424466;32;20192;-70
2021/09/15 03:38:20;;;;;;;15.90;9.53;;;12.70;99.90;;;;;;4425127;32;20177;-69
2021/09/15 03:40:49;;;;;;;14.60;9.90;;;12.70;99.90;;;;;;4426720;32;20184;-69
2021/09/15 03:43:24;;;;;;;13.67;9.37;;;12.80;99.90;;;;;;4428003;32;20138;-69
2021/09/15 03:45:50;;;;;;;17.40;9.80;;;12.80;99.90;;;;;;4426636;32;20126;-69
2021/09/15 03:48:17;;;;;;;14.83;9.63;;;12.90;99.90;;;;;;4427526;32;20143;-69
2021/09/15 03:50:44;;;;;;;16.20;10.10;;;12.80;99.90;;;;;;4428143;32;20166;-69
2021/09/15 03:53:11;;;;;;;13.47;9.30;;;12.90;99.90;;;;;;4428307;32;20479;-69
2021/09/15 03:55:37;;;;;;;15.03;9.70;;;12.90;99.90;;;;;;4428228;32;20135;-69
2021/09/15 03:58:04;;;;;;;16.03;10.23;;;12.90;99.90;;;;;;4428035;32;20201;-70
2021/09/15 04:00:31;;;;;;;14.03;9.20;;;12.90;99.90;;;;;;4426583;32;20233;-70
2021/09/15 04:02:58;;;;;;;15.73;9.37;;;12.90;99.90;;;;;;4426201;32;20162;-70
2021/09/15 04:05:28;;;;;;;15.23;9.73;;;12.90;99.90;;;;;;4427899;32;20208;-69
2021/09/15 04:07:58;;;;;;;15.90;9.77;;;12.90;99.90;;;;;;4426397;32;20496;-69
2021/09/15 04:10:25;;;;;;;15.17;9.90;;;12.90;99.90;;;;;;4425863;32;20237;-69
2021/09/15 04:12:54;;;;;;;15.00;9.63;;;13.00;99.90;;;;;;4425776;32;20163;-69
2021/09/15 04:15:22;;;;;;;13.03;8.93;;;12.90;99.90;;;;;;4425197;32;20135;-69
2021/09/15 04:17:49;;;;;;;14.27;9.57;;;12.90;99.90;;;;;;4427791;32;20196;-70
2021/09/15 04:20:15;;;;;;;13.63;9.60;;;12.90;99.90;;;;;;4425731;32;20132;-70
2021/09/15 04:22:43;;;;;;;13.73;8.77;;;12.90;99.90;;;;;;4427447;32;20147;-70
2021/09/15 04:33:29;;;;;;;13.53;9.27;;;12.90;99.90;;;;;;4427487;32;20337;-69
2021/09/15 04:35:59;;;;;;;14.03;9.13;;;12.90;99.90;;;;;;4425452;32;20182;-70
2021/09/15 04:38:27;;;;;;;16.07;10.10;;;12.90;99.90;;;;;;4426897;32;20230;-70
2021/09/15 04:40:54;;;;;;;16.43;9.80;;;12.80;99.90;;;;;;4426532;32;20521;-70
2021/09/15 04:43:21;;;;;;;15.80;10.40;;;12.80;99.90;;;;;;4425561;32;20159;-70
2021/09/15 04:45:52;;;;;;;14.70;9.83;;;12.70;99.90;;;;;;4427389;32;20134;-70
2021/09/15 04:48:30;;;;;;;15.73;9.87;;;12.70;99.90;;;;;;4425341;32;20453;-69
2021/09/15 04:50:57;;;;;;;15.10;9.80;;;12.70;99.90;;;;;;4425044;32;20143;-69
2021/09/15 04:53:24;;;;;;;17.70;10.20;;;12.60;99.90;;;;;;4425900;32;20155;-69
2021/09/15 04:55:51;;;;;;;15.37;9.67;;;12.60;99.90;;;;;;4425129;32;20143;-69
2021/09/15 04:58:23;;;;;;;15.17;10.30;;;12.60;99.90;;;;;;4425522;32;20142;-70
2021/09/15 05:00:50;;;;;;;18.10;10.47;;;12.60;99.90;;;;;;4425064;32;20148;-69
2021/09/15 05:03:17;;;;;;;16.57;10.90;;;12.60;99.90;;;;;;4425141;32;20171;-69
2021/09/15 05:05:44;;;;;;;17.97;10.90;;;12.60;99.90;;;;;;4426933;32;20235;-70
2021/09/15 05:08:11;;;;;;;18.20;11.27;;;12.50;99.90;;;;;;4424838;32;20181;-70
2021/09/15 05:10:38;;;;;;;18.80;11.43;;;12.50;99.90;;;;;;4425203;32;20127;-69
2021/09/15 05:13:05;;;;;;;21.50;12.27;;;12.60;99.90;;;;;;4427091;32;20147;-70
2021/09/15 05:15:32;;;;;;;18.77;11.53;;;12.60;99.90;;;;;;4425102;32;20135;-70
2021/09/15 05:18:03;;;;;;;21.63;12.37;;;12.60;99.90;;;;;;4426659;32;20465;-70
2021/09/15 05:20:30;;;;;;;21.93;12.33;;;12.60;99.90;;;;;;4424999;32;20231;-70
2021/09/15 05:22:56;;;;;;;20.33;12.37;;;12.70;99.90;;;;;;4425917;32;20196;-71
2021/09/15 05:25:25;;;;;;;20.97;12.67;;;12.80;99.90;;;;;;4426673;32;20135;-69
2021/09/15 05:27:52;;;;;;;21.20;12.37;;;12.80;99.90;;;;;;4424541;32;20151;-70
2021/09/15 05:30:19;;;;;;;22.30;12.40;;;12.90;99.90;;;;;;4426519;32;20917;-70
2021/09/15 05:32:46;;;;;;;21.33;13.20;;;12.90;99.90;;;;;;4424635;32;20445;-71
2021/09/15 05:35:14;;;;;;;19.73;12.37;;;13.00;99.90;;;;;;4425765;32;20143;-70
2021/09/15 05:37:41;;;;;;;18.67;11.57;;;13.00;99.90;;;;;;4423234;32;20159;-69
2021/09/15 05:40:08;;;;;;;21.67;11.50;;;13.10;99.90;;;;;;4425775;32;20131;-69
2021/09/15 05:42:35;;;;;;;21.17;12.90;;;13.10;99.90;;;;;;4422925;32;20147;-69
2021/09/15 05:45:06;;;;;;;23.80;12.73;;;13.20;99.90;;;;;;4424509;32;20146;-70
2021/09/15 05:47:33;;;;;;;23.20;12.57;;;13.20;99.90;;;;;;4425090;32;20204;-70
2021/09/15 05:50:00;;;;;;;20.57;12.40;;;13.30;99.90;;;;;;4425092;32;20140;-69
2021/09/15 05:52:27;;;;;;;21.87;12.40;;;13.30;99.90;;;;;;4424526;32;20214;-70
2021/09/15 05:54:54;;;;;;;21.40;12.30;;;13.30;99.90;;;;;;4424011;32;20199;-70
2021/09/15 05:57:20;;;;;;;19.90;12.67;;;13.40;99.90;;;;;;4423824;32;20146;-70
2021/09/15 05:59:49;;;;;;;21.50;12.53;;;13.40;99.90;;;;;;4424819;32;20185;-69
2021/09/15 06:02:16;;;;;;;19.20;11.97;;;13.40;99.90;;;;;;4423685;32;20135;-69
2021/09/15 06:04:43;;;;;;;17.10;11.70;;;13.50;99.90;;;;;;4425100;32;20127;-69
2021/09/15 06:07:10;;;;;;;17.67;11.63;;;13.50;99.90;;;;;;4425034;32;20143;-69
2021/09/15 06:09:37;;;;;;;20.70;12.60;;;13.60;99.90;;;;;;4424583;32;20171;-69
2021/09/15 06:12:07;;;;;;;18.57;12.20;;;13.70;99.90;;;;;;4425953;32;20192;-69
2021/09/15 06:14:36;;;;;;;16.77;11.57;;;13.80;99.90;;;;;;4424737;32;20184;-69
2021/09/15 06:17:06;;;;;;;19.70;12.13;;;13.90;99.90;;;;;;4423784;32;20184;-69
2021/09/15 06:19:33;;;;;;;17.90;11.17;;;13.90;99.90;;;;;;4424924;32;20127;-69
2021/09/15 06:22:00;;;;;;;18.20;12.00;;;13.90;99.90;;;;;;4423326;32;20196;-69
2021/09/15 06:24:27;;;;;;;18.57;11.50;;;14.00;99.90;;;;;;4421711;32;20172;-68
2021/09/15 06:26:55;;;;;;;16.33;11.17;;;14.10;99.90;;;;;;4425621;32;20154;-68
2021/09/15 06:29:22;;;;;;;17.93;11.47;;;14.10;99.90;;;;;;4424901;32;20140;-69
2021/09/15 06:31:49;;;;;;;17.53;10.83;;;14.20;99.90;;;;;;4423718;32;20142;-69
2021/09/15 06:34:16;;;;;;;17.33;11.27;;;14.30;99.90;;;;;;4423743;32;20467;-70
2021/09/15 06:36:43;;;;;;;16.70;11.17;;;14.40;99.90;;;;;;4424575;32;20220;-69
2021/09/15 06:39:10;;;;;;;17.43;11.83;;;14.50;99.90;;;;;;4423787;32;20245;-68
2021/09/15 06:41:42;;;;;;;17.70;11.73;;;14.60;99.90;;;;;;4423856;32;20135;-68
2021/09/15 06:44:09;;;;;;;18.37;12.00;;;14.70;99.90;;;;;;4424543;32;20147;-69
2021/09/15 06:46:36;;;;;;;17.33;11.60;;;14.80;99.90;;;;;;4423647;32;20131;-69
2021/09/15 06:49:06;;;;;;;19.13;12.77;;;14.90;99.90;;;;;;4425444;32;20166;-69
2021/09/15 06:51:35;;;;;;;18.80;12.97;;;14.90;99.90;;;;;;4423455;32;20131;-69
2021/09/15 06:54:02;;;;;;;18.50;12.67;;;14.90;99.90;;;;;;4422886;32;20159;-68
2021/09/15 06:56:29;;;;;;;18.93;13.70;;;14.90;99.90;;;;;;4423434;32;20151;-68
2021/09/15 06:58:57;;;;;;;21.63;14.40;;;15.00;99.90;;;;;;4424905;32;20189;-69
2021/09/15 07:01:26;;;;;;;21.43;14.87;;;15.00;99.90;;;;;;4424730;32;20131;-68
2021/09/15 07:03:56;;;;;;;27.00;15.40;;;15.00;99.90;;;;;;4422517;32;20162;-68
2021/09/15 07:06:23;;;;;;;23.77;15.50;;;15.00;99.90;;;;;;4425254;32;20374;-69
2021/09/15 07:08:52;;;;;;;24.50;14.70;;;15.10;99.90;;;;;;4423485;32;20151;-69
2021/09/15 07:11:21;;;;;;;24.10;16.27;;;15.10;99.90;;;;;;4424903;32;20139;-69
2021/09/15 07:13:48;;;;;;;24.53;16.10;;;15.20;99.90;;;;;;4422623;32;20158;-70
2021/09/15 07:16:15;;;;;;;22.37;15.50;;;15.20;99.90;;;;;;4425082;32;20158;-69
2021/09/15 07:18:44;;;;;;;25.57;16.57;;;15.20;99.90;;;;;;4418030;32;20147;-69
2021/09/15 07:21:14;;;;;;;27.53;17.43;;;15.30;99.90;;;;;;4418026;32;20210;-71
2021/09/15 07:23:40;;;;;;;23.87;15.97;;;15.30;99.90;;;;;;4423347;32;20191;-68
2021/09/15 07:26:07;;;;;;;23.63;15.67;;;15.40;99.90;;;;;;4424272;32;20183;-68
2021/09/15 07:28:37;;;;;;;23.20;16.63;;;15.50;99.90;;;;;;4423253;32;20127;-69
2021/09/15 07:31:04;;;;;;;24.70;16.00;;;15.60;99.90;;;;;;4423317;32;20370;-69
2021/09/15 07:33:32;;;;;;;24.47;16.27;;;15.70;99.90;;;;;;4422574;32;20164;-68
2021/09/15 07:36:01;;;;;;;24.40;16.60;;;15.80;99.90;;;;;;4424367;32;20343;-68
2021/09/15 07:38:33;;;;;;;23.83;16.30;;;15.90;99.90;;;;;;4422652;32;20422;-68
2021/09/15 07:41:00;;;;;;;27.60;17.90;;;16.00;99.90;;;;;;4422530;32;20240;-69
2021/09/15 07:43:28;;;;;;;27.73;18.53;;;16.10;99.90;;;;;;4424836;32;20206;-70
2021/09/15 07:45:54;;;;;;;30.90;18.67;;;16.10;99.90;;;;;;4423509;32;20454;-69
2021/09/15 07:48:21;;;;;;;32.27;18.50;;;16.20;99.90;;;;;;4422935;32;20139;-69
2021/09/15 07:50:50;;;;;;;29.03;19.07;;;16.30;99.90;;;;;;4415604;32;20187;-68
2021/09/15 07:53:19;;;;;;;26.63;17.60;;;16.30;99.90;;;;;;4409607;32;20136;-69
2021/09/15 07:55:46;;;;;;;27.40;17.77;;;16.40;99.90;;;;;;4407987;32;20190;-69
2021/09/15 07:58:16;;;;;;;26.77;17.57;;;16.50;99.90;;;;;;4409677;32;20181;-68
2021/09/15 08:00:42;;;;;;;30.67;17.33;;;16.60;99.90;;;;;;4408062;32;20205;-68
2021/09/15 08:03:09;;;;;;;24.57;16.13;;;16.70;99.90;;;;;;4409406;32;20161;-67
2021/09/15 08:05:36;;;;;;;25.03;16.00;;;16.80;99.90;;;;;;4408371;32;20232;-70
2021/09/15 08:08:03;;;;;;;24.77;16.30;;;16.90;99.90;;;;;;4408890;32;20179;-68
2021/09/15 08:10:30;;;;;;;25.47;14.93;;;17.00;99.90;;;;;;4419744;32;20147;-69
2021/09/15 08:12:57;;;;;;;22.70;14.50;;;17.10;99.90;;;;;;4424278;32;20197;-70
2021/09/15 08:15:28;;;;;;;22.07;14.93;;;17.20;99.90;;;;;;4424786;32;20158;-69
2021/09/15 08:17:55;;;;;;;21.60;15.00;;;17.40;99.90;;;;;;4422456;32;20219;-70
2021/09/15 08:20:22;;;;;;;18.00;12.90;;;17.70;99.90;;;;;;4423389;32;20453;-69
2021/09/15 08:22:52;;;;;;;18.37;13.07;;;18.20;99.90;;;;;;4424295;32;20131;-70
2021/09/15 08:25:22;;;;;;;21.13;13.10;;;18.80;99.90;;;;;;4423940;32;20131;-69
2021/09/15 08:27:50;;;;;;;19.67;12.20;;;19.40;99.90;;;;;;4427801;32;20157;-69
2021/09/15 08:30:20;;;;;;;17.97;12.27;;;19.90;99.90;;;;;;4427478;32;20135;-69
2021/09/15 08:32:46;;;;;;;20.30;12.97;;;20.40;99.90;;;;;;4427669;32;20227;-69
2021/09/15 08:35:19;;;;;;;20.03;12.57;;;20.90;99.90;;;;;;4427416;32;20189;-69
2021/09/15 08:37:45;;;;;;;16.77;10.80;;;21.40;99.90;;;;;;4426342;32;20506;-69
2021/09/15 08:40:12;;;;;;;17.03;11.10;;;21.80;99.90;;;;;;4427135;32;20176;-68
2021/09/15 08:42:39;;;;;;;17.27;10.60;;;22.20;99.90;;;;;;4427520;32;20394;-68
2021/09/15 08:45:08;;;;;;;20.10;11.30;;;22.50;99.90;;;;;;4425641;32;20179;-69
2021/09/15 08:47:43;;;;;;;13.97;9.73;;;22.90;99.90;;;;;;4425672;32;20170;-69
2021/09/15 08:50:12;;;;;;;14.63;10.07;;;23.10;99.90;;;;;;4425332;32;20131;-69
2021/09/15 08:52:39;;;;;;;16.40;10.53;;;23.40;99.90;;;;;;4426737;32;20504;-70
2021/09/15 08:55:06;;;;;;;15.87;9.63;;;23.60;99.90;;;;;;4424829;32;20216;-70
2021/09/15 08:57:33;;;;;;;16.60;10.48;;;24.00;99.90;;;;;;4425485;32;20196;-69
2021/09/15 09:00:03;;;;;;;17.43;11.03;;;24.50;99.90;;;;;;4425467;32;20177;-68
2021/09/15 09:02:44;;;;;;;17.80;11.30;;;24.80;99.90;;;;;;4425809;32;20149;-69
2021/09/15 09:05:11;;;;;;;16.57;10.67;;;25.30;99.90;;;;;;4425310;32;20165;-69
2021/09/15 09:07:38;;;;;;;13.82;9.68;;;25.50;99.90;;;;;;4425623;32;20132;-69
2021/09/15 09:10:10;;;;;;;16.27;11.23;;;26.00;99.90;;;;;;4426063;32;20147;-69
2021/09/15 09:12:39;;;;;;;16.65;10.63;;;26.10;99.90;;;;;;4427239;32;20414;-69
2021/09/15 09:15:30;;;;;;;14.77;10.40;;;26.20;99.90;;;;;;4426663;32;20496;-69
2021/09/15 09:17:59;;;;;;;14.05;10.10;;;26.50;99.90;;;;;;4425228;32;20565;-69
2021/09/15 09:20:35;;;;;;;15.40;10.50;;;26.90;99.90;;;;;;4427130;32;20167;-69
2021/09/15 09:23:05;;;;;;;15.52;10.32;;;26.60;99.90;;;;;;4426956;32;20394;-69
2021/09/15 09:25:35;;;;;;;13.35;10.15;;;26.40;99.90;;;;;;4427124;32;20364;-69
2021/09/15 09:28:24;;;;;;;13.18;10.48;;;26.50;99.90;;;;;;4426908;32;20354;-69
2021/09/15 09:30:53;;;;;;;13.15;9.77;;;26.80;99.90;;;;;;4425418;32;20183;-70
2021/09/15 09:33:21;;;;;;;15.75;10.07;;;27.30;99.90;;;;;;4425599;32;20521;-69
2021/09/15 09:35:54;;;;;;;14.15;9.85;;;27.60;99.90;;;;;;4425100;32;20127;-69
2021/09/15 09:38:25;;;;;;;14.82;9.77;;;27.70;99.20;;;;;;4424186;32;20177;-69
2021/09/15 09:41:06;;;;;;;13.25;9.05;;;27.00;98.40;;;;;;4424918;32;20458;-70
2021/09/15 09:43:52;;;;;;;12.23;9.35;;;27.50;99.60;;;;;;4425480;32;20225;-69
2021/09/15 09:46:27;;;;;;;11.90;8.70;;;28.00;97.30;;;;;;4426834;32;20124;-69
2021/09/15 09:48:55;;;;;;;13.73;8.90;;;28.40;96.70;;;;;;4425751;32;20175;-68
2021/09/15 09:51:45;;;;;;;11.35;8.90;;;28.80;95.90;;;;;;4426699;32;20185;-69
2021/09/15 09:54:24;;;;;;;12.35;8.95;;;29.20;92.80;;;;;;4425530;32;20209;-69
2021/09/15 09:56:56;;;;;;;15.55;9.43;;;28.90;93.70;;;;;;4426572;32;20175;-70
2021/09/15 09:59:28;;;;;;;13.40;9.07;;;29.40;93.80;;;;;;4424078;32;20592;-69
2021/09/15 10:02:02;;;;;;;14.10;9.85;;;29.80;92.10;;;;;;4423191;32;20173;-69
2021/09/15 10:04:31;;;;;;;12.00;9.27;;;29.70;89.80;;;;;;4424697;32;20134;-69
2021/09/15 10:07:01;;;;;;;12.10;9.70;;;29.80;88.90;;;;;;4426082;32;20179;-70
2021/09/15 10:09:28;;;;;;;13.00;9.35;;;29.90;87.30;;;;;;4425443;32;20198;-68
2021/09/15 10:11:57;;;;;;;13.80;8.77;;;29.80;87.60;;;;;;4425280;32;20183;-68
2021/09/15 10:14:26;;;;;;;8.80;7.37;;;30.00;83.80;;;;;;4425130;32;20175;-69
2021/09/15 10:17:01;;;;;;;8.65;6.35;;;29.90;79.70;;;;;;4426023;32;20124;-69
2021/09/15 10:19:36;;;;;;;15.15;8.65;;;29.90;78.40;;;;;;4425411;32;20147;-69
2021/09/15 10:22:04;;;;;;;12.15;9.23;;;30.30;81.40;;;;;;4426080;32;20168;-68
2021/09/15 10:24:55;;;;;;;12.10;9.25;;;30.70;82.60;;;;;;4424360;32;20195;-70
2021/09/15 10:27:57;;;;;;;10.43;8.40;;;31.20;80.50;;;;;;4425433;32;20184;-69
2021/09/15 10:30:42;;;;;;;9.88;7.90;;;31.50;78.40;;;;;;4424130;32;20187;-69
2021/09/15 10:33:39;;;;;;;12.35;7.72;;;31.70;73.70;;;;;;4424076;32;20146;-70
2021/09/15 10:36:12;;;;;;;10.70;7.80;;;30.90;73.10;;;;;;4424998;32;20489;-69
2021/09/15 10:38:52;;;;;;;12.02;9.05;;;31.20;75.20;;;;;;4423820;32;20561;-69
2021/09/15 10:41:34;;;;;;;10.75;7.80;;;31.10;72.70;;;;;;4425598;32;20123;-69
2021/09/15 10:44:08;;;;;;;12.15;7.65;;;30.40;72.70;;;;;;4425639;32;20135;-69
2021/09/15 10:46:36;;;;;;;9.60;7.10;;;29.30;73.70;;;;;;4424671;32;20131;-68
2021/09/15 10:49:21;;;;;;;10.75;7.85;;;28.80;77.90;;;;;;4424138;32;20191;-68
2021/09/15 10:52:07;;;;;;;11.10;7.95;;;28.50;77.50;;;;;;4423848;32;20123;-71
2021/09/15 10:54:43;;;;;;;10.32;8.38;;;27.90;80.50;;;;;;4424411;32;20183;-70
2021/09/15 10:57:26;;;;;;;11.35;7.70;;;28.20;82.10;;;;;;4424239;32;20175;-69
2021/09/15 11:00:03;;;;;;;10.35;7.87;;;28.80;80.60;;;;;;4424096;32;20358;-69
2021/09/15 11:02:36;;;;;;;11.68;8.15;;;29.60;81.40;;;;;;4425333;32;20131;-70
2021/09/15 11:05:26;;;;;;;10.63;8.38;;;29.90;77.80;;;;;;4425043;32;20155;-71
2021/09/15 11:07:54;;;;;;;10.40;7.37;;;29.50;74.80;;;;;;4424927;32;20162;-70
2021/09/15 11:10:33;;;;;;;10.20;7.55;;;29.00;77.20;;;;;;4425139;32;20123;-69
2021/09/15 11:13:15;;;;;;;9.85;6.82;;;28.80;76.90;;;;;;4425154;32;20150;-70
2021/09/15 11:15:42;;;;;;;10.43;7.37;;;28.70;77.30;;;;;;4425439;32;20123;-71
2021/09/15 11:18:23;;;;;;;9.32;7.75;;;29.50;76.80;;;;;;4423266;32;20170;-70
2021/09/15 11:21:05;;;;;;;9.45;7.30;;;29.60;75.10;;;;;;4423622;32;20172;-70
2021/09/15 11:23:32;;;;;;;8.40;7.07;;;30.10;71.70;;;;;;4424324;32;20127;-70
2021/09/15 11:26:04;;;;;;;8.23;6.87;;;29.90;72.40;;;;;;4423405;32;20166;-71
2021/09/15 11:28:37;;;;;;;7.90;6.65;;;30.20;72.50;;;;;;4424757;32;20457;-70
2021/09/15 11:31:04;;;;;;;7.80;7.00;;;31.20;71.00;;;;;;4423651;32;20131;-70
2021/09/15 11:33:32;;;;;;;7.18;6.32;;;32.60;68.00;;;;;;4424637;32;20142;-70
2021/09/15 11:36:10;;;;;;;8.80;6.57;;;33.70;65.00;;;;;;4424306;32;20147;-70
2021/09/15 11:38:39;;;;;;;8.55;6.68;;;34.80;61.20;;;;;;4422148;32;20277;-69
2021/09/15 11:41:14;;;;;;;6.47;5.85;;;34.40;58.70;;;;;;4423664;32;20159;-69
2021/09/15 11:43:45;;;;;;;7.28;6.10;;;33.90;59.50;;;;;;4424882;32;20185;-71
2021/09/15 11:46:18;;;;;;;9.10;6.30;;;33.90;59.50;;;;;;4423734;32;20457;-70
2021/09/15 11:48:46;;;;;;;8.60;6.65;;;34.40;59.60;;;;;;4425082;32;20138;-70
2021/09/15 11:51:18;;;;;;;7.32;5.78;;;35.10;57.80;;;;;;4424440;32;20127;-69
2021/09/15 11:54:03;;;;;;;6.82;5.70;;;35.50;55.60;;;;;;4424857;32;20127;-70
2021/09/15 11:56:51;;;;;;;8.23;6.00;;;36.00;53.80;;;;;;4425440;32;20177;-69
2021/09/15 11:59:19;;;;;;;6.80;5.62;;;36.40;52.00;;;;;;4424130;32;20257;-70
2021/09/15 12:02:08;;;;;;;7.05;5.65;;;36.80;51.50;;;;;;4427965;32;20419;-70
2021/09/15 12:04:38;;;;;;;9.38;6.30;;;36.80;50.60;;;;;;4427846;32;20524;-71
2021/09/15 12:07:11;;;;;;;7.68;5.62;;;35.70;51.00;;;;;;4427807;32;20187;-70
2021/09/15 12:09:39;;;;;;;6.55;5.43;;;35.70;52.10;;;;;;4425887;32;20583;-70
2021/09/15 12:12:11;;;;;;;7.43;6.00;;;34.90;52.80;;;;;;4427892;32;20154;-69
2021/09/15 12:14:38;;;;;;;7.05;6.35;;;33.90;54.20;;;;;;4426381;32;20162;-70
2021/09/15 12:17:08;;;;;;;6.90;5.85;;;33.00;55.70;;;;;;4427170;32;20127;-70
2021/09/15 12:19:46;;;;;;;6.95;5.85;;;33.10;56.30;;;;;;4427058;32;20174;-70
2021/09/15 12:22:20;;;;;;;7.60;5.95;;;33.20;55.20;;;;;;4425530;32;20195;-70
2021/09/15 12:25:11;;;;;;;9.02;6.50;;;33.10;55.50;;;;;;4427012;32;20179;-69
2021/09/15 12:27:41;;;;;;;6.70;5.70;;;32.40;56.10;;;;;;4425881;32;20127;-71
2021/09/15 12:30:10;;;;;;;7.20;5.95;;;32.10;57.90;;;;;;4425824;32;20158;-71
2021/09/15 12:32:42;;;;;;;7.70;6.45;;;32.60;57.00;;;;;;4425838;32;20135;-70
2021/09/15 12:35:24;;;;;;;6.65;5.97;;;32.30;56.90;;;;;;4427814;32;20161;-69
2021/09/15 12:38:06;;;;;;;9.25;6.03;;;31.50;58.40;;;;;;4424637;32;20154;-69
2021/09/15 12:40:35;;;;;;;7.35;6.15;;;31.20;59.80;;;;;;4427780;32;20127;-69
2021/09/15 12:43:05;;;;;;;8.52;6.18;;;30.60;59.00;;;;;;4427540;32;20206;-71
2021/09/15 12:45:34;;;;;;;7.53;6.60;;;30.10;61.40;;;;;;4425775;32;20488;-72
2021/09/15 12:48:01;;;;;;;7.68;6.47;;;29.40;62.10;;;;;;4425742;32;20150;-71
2021/09/15 12:50:31;;;;;;;7.95;7.15;;;29.10;64.60;;;;;;4426730;32;20220;-70
2021/09/15 12:53:13;;;;;;;8.75;7.03;;;28.50;65.30;;;;;;4427428;32;20476;-69
2021/09/15 12:55:46;;;;;;;9.52;6.70;;;28.50;66.90;;;;;;4427096;32;20131;-71